sensor_id;sensor_type;location;lat;lon;timestamp;pressure;altitude;pressure_sealevel;temperature;humidity
68508;BME280;55510;49.560;19.090;2022-12-11T11:44:26;95037.81;;;-1.90;90.17
68508;BME280;55510;49.560;19.090;2022-12-11T11:47:35;95028.56;;;-1.93;90.06
68508;BME280;55510;49.560;19.090;2022-12-11T11:50:40;95018.53;;;-1.96;90.27
68508;BME280;55510;49.560;19.090;2022-12-11T11:53:48;95019.72;;;-2.05;91.08
68508;BME280;55510;49.560;19.090;2022-12-11T11:56:52;95012.50;;;-2.03;91.41
68508;BME280;55510;49.560;19.090;2022-12-11T12:00:00;95011.69;;;-2.10;91.25
68508;BME280;55510;49.560;19.090;2022-12-11T12:03:11;95011.09;;;-1.99;92.02
68508;BME280;55510;49.560;19.090;2022-12-11T12:06:16;95020.94;;;-1.87;91.70
68508;BME280;55510;49.560;19.090;2022-12-11T12:15:56;95030.16;;;-1.92;89.94
68508;BME280;55510;49.560;19.090;2022-12-11T12:19:48;95046.59;;;-1.98;90.69
68508;BME280;55510;49.560;19.090;2022-12-11T12:23:00;95043.19;;;-2.05;90.81
68508;BME280;55510;49.560;19.090;2022-12-11T12:26:31;95046.78;;;-2.06;91.34
68508;BME280;55510;49.560;19.090;2022-12-11T12:29:44;95051.19;;;-2.13;90.89
68508;BME280;55510;49.560;19.090;2022-12-11T12:33:22;95051.97;;;-2.20;91.42
68508;BME280;55510;49.560;19.090;2022-12-11T12:36:36;95046.78;;;-2.20;91.94
68508;BME280;55510;49.560;19.090;2022-12-11T12:40:18;95049.34;;;-2.26;91.82
68508;BME280;55510;49.560;19.090;2022-12-11T12:46:59;95060.47;;;-2.46;92.61
68508;BME280;55510;49.560;19.090;2022-12-11T12:50:02;95070.13;;;-2.46;93.21
68508;BME280;55510;49.560;19.090;2022-12-11T12:53:05;95078.72;;;-2.46;92.92
68508;BME280;55510;49.560;19.090;2022-12-11T12:56:09;95072.28;;;-2.50;92.62
68508;BME280;55510;49.560;19.090;2022-12-11T12:59:26;95075.50;;;-2.55;92.69
68508;BME280;55510;49.560;19.090;2022-12-11T13:02:27;95081.88;;;-2.57;93.32
68508;BME280;55510;49.560;19.090;2022-12-11T13:05:32;95076.50;;;-2.56;92.90
68508;BME280;55510;49.560;19.090;2022-12-11T13:08:38;95072.28;;;-2.57;93.29
68508;BME280;55510;49.560;19.090;2022-12-11T13:11:40;95078.88;;;-2.61;93.45
68508;BME280;55510;49.560;19.090;2022-12-11T13:14:41;95078.63;;;-2.66;93.31
68508;BME280;55510;49.560;19.090;2022-12-11T13:17:41;95084.81;;;-2.67;93.20
68508;BME280;55510;49.560;19.090;2022-12-11T13:20:47;95087.63;;;-2.69;93.29
68508;BME280;55510;49.560;19.090;2022-12-11T13:23:50;95085.41;;;-2.72;93.66
68508;BME280;55510;49.560;19.090;2022-12-11T13:26:51;95084.81;;;-2.74;93.46
68508;BME280;55510;49.560;19.090;2022-12-11T13:33:17;95098.53;;;-2.87;93.27
68508;BME280;55510;49.560;19.090;2022-12-11T13:39:24;95111.19;;;-2.84;93.53
68508;BME280;55510;49.560;19.090;2022-12-11T13:42:31;95103.94;;;-2.88;94.08
68508;BME280;55510;49.560;19.090;2022-12-11T13:48:52;95106.75;;;-2.90;93.77
68508;BME280;55510;49.560;19.090;2022-12-11T13:51:58;95106.31;;;-2.94;94.29
68508;BME280;55510;49.560;19.090;2022-12-11T13:55:12;95098.69;;;-2.95;94.52
68508;BME280;55510;49.560;19.090;2022-12-11T13:58:17;95102.69;;;-2.99;94.23
68508;BME280;55510;49.560;19.090;2022-12-11T14:01:24;95106.44;;;-3.09;94.42
68508;BME280;55510;49.560;19.090;2022-12-11T14:04:27;95110.56;;;-3.14;94.51
68508;BME280;55510;49.560;19.090;2022-12-11T14:07:31;95099.13;;;-3.20;95.21
68508;BME280;55510;49.560;19.090;2022-12-11T14:10:33;95101.09;;;-3.22;95.03
68508;BME280;55510;49.560;19.090;2022-12-11T14:13:36;95102.47;;;-3.26;95.54
68508;BME280;55510;49.560;19.090;2022-12-11T14:16:42;95100.88;;;-3.27;96.18
68508;BME280;55510;49.560;19.090;2022-12-11T14:19:46;95094.50;;;-3.25;95.78
68508;BME280;55510;49.560;19.090;2022-12-11T14:22:48;95106.06;;;-3.27;95.35
68508;BME280;55510;49.560;19.090;2022-12-11T14:26:03;95112.81;;;-3.33;94.86
68508;BME280;55510;49.560;19.090;2022-12-11T14:29:05;95118.78;;;-3.39;95.43
68508;BME280;55510;49.560;19.090;2022-12-11T14:32:06;95109.56;;;-3.42;96.09
68508;BME280;55510;49.560;19.090;2022-12-11T14:35:22;95121.13;;;-3.44;96.25
68508;BME280;55510;49.560;19.090;2022-12-11T14:38:43;95128.91;;;-3.51;96.60
68508;BME280;55510;49.560;19.090;2022-12-11T14:45:04;95126.28;;;-3.51;96.63
68508;BME280;55510;49.560;19.090;2022-12-11T14:48:17;95127.47;;;-3.54;97.10
68508;BME280;55510;49.560;19.090;2022-12-11T14:51:21;95113.03;;;-3.56;97.07
68508;BME280;55510;49.560;19.090;2022-12-11T14:54:42;95112.78;;;-3.61;96.84
68508;BME280;55510;49.560;19.090;2022-12-11T14:57:48;95115.38;;;-3.61;97.83
68508;BME280;55510;49.560;19.090;2022-12-11T15:01:06;95134.81;;;-3.57;97.83
68508;BME280;55510;49.560;19.090;2022-12-11T15:07:20;95138.59;;;-3.60;97.53
68508;BME280;55510;49.560;19.090;2022-12-11T15:10:27;95128.22;;;-3.60;97.33
68508;BME280;55510;49.560;19.090;2022-12-11T15:13:31;95137.78;;;-3.60;97.87
68508;BME280;55510;49.560;19.090;2022-12-11T15:16:37;95136.19;;;-3.61;97.78
68508;BME280;55510;49.560;19.090;2022-12-11T15:19:40;95140.16;;;-3.66;97.42
68508;BME280;55510;49.560;19.090;2022-12-11T15:22:45;95148.31;;;-3.69;97.39
68508;BME280;55510;49.560;19.090;2022-12-11T15:25:54;95146.09;;;-3.72;97.80
68508;BME280;55510;49.560;19.090;2022-12-11T15:29:04;95153.00;;;-3.79;97.61
68508;BME280;55510;49.560;19.090;2022-12-11T15:35:24;95161.56;;;-3.85;97.87
68508;BME280;55510;49.560;19.090;2022-12-11T15:38:31;95153.91;;;-3.87;97.18
68508;BME280;55510;49.560;19.090;2022-12-11T15:41:32;95143.72;;;-3.88;97.26
68508;BME280;55510;49.560;19.090;2022-12-11T15:44:33;95151.53;;;-3.88;97.51
68508;BME280;55510;49.560;19.090;2022-12-11T15:47:34;95158.69;;;-3.90;97.40
68508;BME280;55510;49.560;19.090;2022-12-11T15:50:35;95162.28;;;-3.91;97.43
68508;BME280;55510;49.560;19.090;2022-12-11T15:53:36;95170.25;;;-3.93;97.10
68508;BME280;55510;49.560;19.090;2022-12-11T15:56:37;95169.47;;;-3.94;97.39
68508;BME280;55510;49.560;19.090;2022-12-11T15:59:38;95172.22;;;-3.95;96.71
68508;BME280;55510;49.560;19.090;2022-12-11T16:02:38;95168.66;;;-3.94;97.20
68508;BME280;55510;49.560;19.090;2022-12-11T16:05:43;95168.22;;;-3.98;96.75
68508;BME280;55510;49.560;19.090;2022-12-11T16:08:44;95168.56;;;-4.01;96.46
68508;BME280;55510;49.560;19.090;2022-12-11T16:11:45;95166.78;;;-4.00;96.47
68508;BME280;55510;49.560;19.090;2022-12-11T16:14:45;95165.69;;;-4.06;96.27
68508;BME280;55510;49.560;19.090;2022-12-11T16:17:46;95172.44;;;-4.12;95.89
68508;BME280;55510;49.560;19.090;2022-12-11T16:20:47;95179.25;;;-4.11;96.32
68508;BME280;55510;49.560;19.090;2022-12-11T16:23:48;95177.81;;;-4.13;95.64
68508;BME280;55510;49.560;19.090;2022-12-11T16:26:49;95180.41;;;-4.13;96.77
68508;BME280;55510;49.560;19.090;2022-12-11T16:29:50;95171.38;;;-4.17;96.52
68508;BME280;55510;49.560;19.090;2022-12-11T16:32:50;95180.78;;;-4.16;96.43
68508;BME280;55510;49.560;19.090;2022-12-11T16:35:51;95179.97;;;-4.17;97.22
68508;BME280;55510;49.560;19.090;2022-12-11T16:38:52;95185.19;;;-4.17;96.58
68508;BME280;55510;49.560;19.090;2022-12-11T16:41:53;95186.16;;;-4.18;97.36
68508;BME280;55510;49.560;19.090;2022-12-11T16:44:53;95182.13;;;-4.20;97.37
68508;BME280;55510;49.560;19.090;2022-12-11T16:47:56;95180.31;;;-4.20;97.02
68508;BME280;55510;49.560;19.090;2022-12-11T16:50:56;95179.00;;;-4.16;97.40
68508;BME280;55510;49.560;19.090;2022-12-11T16:53:57;95190.00;;;-4.14;97.51
68508;BME280;55510;49.560;19.090;2022-12-11T16:56:58;95195.63;;;-4.10;97.53
68508;BME280;55510;49.560;19.090;2022-12-11T17:00:07;95192.06;;;-4.09;97.56
68508;BME280;55510;49.560;19.090;2022-12-11T17:03:08;95183.63;;;-4.11;97.18
68508;BME280;55510;49.560;19.090;2022-12-11T17:06:11;95195.22;;;-4.14;97.55
68508;BME280;55510;49.560;19.090;2022-12-11T17:09:12;95197.19;;;-4.16;97.02
68508;BME280;55510;49.560;19.090;2022-12-11T17:12:13;95204.41;;;-4.11;97.66
68508;BME280;55510;49.560;19.090;2022-12-11T17:15:13;95207.00;;;-4.11;97.62
68508;BME280;55510;49.560;19.090;2022-12-11T17:18:14;95197.59;;;-4.12;97.11
68508;BME280;55510;49.560;19.090;2022-12-11T17:21:16;95202.81;;;-4.12;97.03
68508;BME280;55510;49.560;19.090;2022-12-11T17:24:18;95203.38;;;-4.17;96.90
68508;BME280;55510;49.560;19.090;2022-12-11T17:27:19;95204.69;;;-4.21;96.71
68508;BME280;55510;49.560;19.090;2022-12-11T17:30:19;95196.09;;;-4.22;97.34
68508;BME280;55510;49.560;19.090;2022-12-11T17:33:23;95204.88;;;-4.23;96.92
68508;BME280;55510;49.560;19.090;2022-12-11T17:36:24;95200.31;;;-4.20;97.18
68508;BME280;55510;49.560;19.090;2022-12-11T17:39:24;95203.53;;;-4.18;97.21
68508;BME280;55510;49.560;19.090;2022-12-11T17:42:25;95203.53;;;-4.18;97.36
68508;BME280;55510;49.560;19.090;2022-12-11T17:45:26;95203.38;;;-4.32;96.99
68508;BME280;55510;49.560;19.090;2022-12-11T17:48:27;95197.53;;;-4.34;98.19
68508;BME280;55510;49.560;19.090;2022-12-11T17:51:27;95195.56;;;-4.32;97.99
68508;BME280;55510;49.560;19.090;2022-12-11T17:54:28;95191.38;;;-4.33;98.22
68508;BME280;55510;49.560;19.090;2022-12-11T17:57:29;95189.41;;;-4.31;97.80
68508;BME280;55510;49.560;19.090;2022-12-11T18:00:30;95184.91;;;-4.37;96.90
68508;BME280;55510;49.560;19.090;2022-12-11T18:03:30;95185.44;;;-4.42;97.49
68508;BME280;55510;49.560;19.090;2022-12-11T18:06:32;95192.72;;;-4.37;97.65
68508;BME280;55510;49.560;19.090;2022-12-11T18:09:32;95199.69;;;-4.38;97.57
68508;BME280;55510;49.560;19.090;2022-12-11T18:12:33;95195.66;;;-4.40;97.35
68508;BME280;55510;49.560;19.090;2022-12-11T18:15:34;95193.06;;;-4.40;97.35
68508;BME280;55510;49.560;19.090;2022-12-11T18:18:35;95190.47;;;-4.40;96.82
68508;BME280;55510;49.560;19.090;2022-12-11T18:21:37;95202.38;;;-4.46;95.97
68508;BME280;55510;49.560;19.090;2022-12-11T18:24:40;95202.19;;;-4.44;96.86
68508;BME280;55510;49.560;19.090;2022-12-11T18:27:41;95204.44;;;-4.41;96.95
68508;BME280;55510;49.560;19.090;2022-12-11T18:30:43;95192.09;;;-4.39;97.34
68508;BME280;55510;49.560;19.090;2022-12-11T18:33:44;95192.41;;;-4.42;96.67
68508;BME280;55510;49.560;19.090;2022-12-11T18:36:45;95198.44;;;-4.42;97.08
68508;BME280;55510;49.560;19.090;2022-12-11T18:39:45;95196.28;;;-4.38;97.15
68508;BME280;55510;49.560;19.090;2022-12-11T18:42:47;95195.84;;;-4.42;96.75
68508;BME280;55510;49.560;19.090;2022-12-11T18:45:47;95200.66;;;-4.39;96.88
68508;BME280;55510;49.560;19.090;2022-12-11T18:48:48;95208.00;;;-4.42;97.15
68508;BME280;55510;49.560;19.090;2022-12-11T18:51:49;95212.75;;;-4.46;96.49
68508;BME280;55510;49.560;19.090;2022-12-11T18:54:50;95205.41;;;-4.42;96.66
68508;BME280;55510;49.560;19.090;2022-12-11T18:57:51;95210.91;;;-4.37;96.46
68508;BME280;55510;49.560;19.090;2022-12-11T19:00:52;95209.28;;;-4.38;96.53
68508;BME280;55510;49.560;19.090;2022-12-11T19:03:54;95213.50;;;-4.37;96.53
68508;BME280;55510;49.560;19.090;2022-12-11T19:06:58;95214.13;;;-4.35;95.93
68508;BME280;55510;49.560;19.090;2022-12-11T19:09:59;95216.09;;;-4.37;96.48
68508;BME280;55510;49.560;19.090;2022-12-11T19:13:03;95216.44;;;-4.40;95.88
68508;BME280;55510;49.560;19.090;2022-12-11T19:16:03;95217.13;;;-4.46;96.49
68508;BME280;55510;49.560;19.090;2022-12-11T19:19:16;95209.63;;;-4.41;97.04
68508;BME280;55510;49.560;19.090;2022-12-11T19:22:17;95211.59;;;-4.43;97.11
68508;BME280;55510;49.560;19.090;2022-12-11T19:25:18;95208.66;;;-4.40;96.75
68508;BME280;55510;49.560;19.090;2022-12-11T19:28:20;95213.19;;;-4.42;96.58
68508;BME280;55510;49.560;19.090;2022-12-11T19:31:21;95208.97;;;-4.43;96.04
68508;BME280;55510;49.560;19.090;2022-12-11T19:34:23;95211.78;;;-4.45;95.93
68508;BME280;55510;49.560;19.090;2022-12-11T19:37:24;95206.13;;;-4.48;95.76
68508;BME280;55510;49.560;19.090;2022-12-11T19:40:24;95215.88;;;-4.51;95.87
68508;BME280;55510;49.560;19.090;2022-12-11T19:43:25;95223.66;;;-4.51;96.04
68508;BME280;55510;49.560;19.090;2022-12-11T19:46:27;95224.50;;;-4.50;95.96
68508;BME280;55510;49.560;19.090;2022-12-11T19:49:28;95228.59;;;-4.56;95.30
68508;BME280;55510;49.560;19.090;2022-12-11T19:52:29;95226.63;;;-4.54;95.51
68508;BME280;55510;49.560;19.090;2022-12-11T19:55:30;95227.81;;;-4.56;95.45
68508;BME280;55510;49.560;19.090;2022-12-11T19:58:31;95223.59;;;-4.57;95.70
68508;BME280;55510;49.560;19.090;2022-12-11T20:01:34;95227.69;;;-4.63;94.82
68508;BME280;55510;49.560;19.090;2022-12-11T20:04:35;95227.22;;;-4.67;93.75
68508;BME280;55510;49.560;19.090;2022-12-11T20:07:35;95226.06;;;-4.64;94.22
68508;BME280;55510;49.560;19.090;2022-12-11T20:10:36;95228.03;;;-4.66;94.10
68508;BME280;55510;49.560;19.090;2022-12-11T20:13:37;95221.13;;;-4.74;93.65
68508;BME280;55510;49.560;19.090;2022-12-11T20:16:39;95230.72;;;-4.74;94.27
68508;BME280;55510;49.560;19.090;2022-12-11T20:19:41;95219.88;;;-4.78;94.26
68508;BME280;55510;49.560;19.090;2022-12-11T20:22:41;95227.78;;;-4.71;95.15
68508;BME280;55510;49.560;19.090;2022-12-11T20:25:42;95225.63;;;-4.68;94.71
68508;BME280;55510;49.560;19.090;2022-12-11T20:28:45;95226.53;;;-4.60;94.80
68508;BME280;55510;49.560;19.090;2022-12-11T20:31:49;95239.06;;;-4.64;94.62
68508;BME280;55510;49.560;19.090;2022-12-11T20:34:54;95239.22;;;-4.66;94.19
68508;BME280;55510;49.560;19.090;2022-12-11T20:37:55;95238.78;;;-4.69;91.65
68508;BME280;55510;49.560;19.090;2022-12-11T20:40:55;95245.59;;;-4.68;91.24
68508;BME280;55510;49.560;19.090;2022-12-11T20:43:56;95240.47;;;-4.76;87.45
68508;BME280;55510;49.560;19.090;2022-12-11T20:46:57;95247.28;;;-4.75;87.75
68508;BME280;55510;49.560;19.090;2022-12-11T20:49:58;95246.03;;;-4.79;87.12
68508;BME280;55510;49.560;19.090;2022-12-11T20:52:59;95247.63;;;-4.78;88.12
68508;BME280;55510;49.560;19.090;2022-12-11T20:56:17;95245.75;;;-4.85;87.56
68508;BME280;55510;49.560;19.090;2022-12-11T20:59:18;95239.38;;;-4.82;88.45
68508;BME280;55510;49.560;19.090;2022-12-11T21:02:19;95249.13;;;-4.84;88.06
68508;BME280;55510;49.560;19.090;2022-12-11T21:05:20;95243.78;;;-4.83;89.46
68508;BME280;55510;49.560;19.090;2022-12-11T21:08:21;95244.41;;;-4.81;89.67
68508;BME280;55510;49.560;19.090;2022-12-11T21:11:22;95240.47;;;-4.76;90.56
68508;BME280;55510;49.560;19.090;2022-12-11T21:14:23;95243.06;;;-4.76;90.62
68508;BME280;55510;49.560;19.090;2022-12-11T21:17:23;95246.66;;;-4.77;90.03
68508;BME280;55510;49.560;19.090;2022-12-11T21:20:24;95245.03;;;-4.78;90.76
68508;BME280;55510;49.560;19.090;2022-12-11T21:23:25;95244.84;;;-4.77;90.70
68508;BME280;55510;49.560;19.090;2022-12-11T21:26:26;95235.91;;;-4.74;90.51
68508;BME280;55510;49.560;19.090;2022-12-11T21:29:27;95238.59;;;-4.83;90.37
68508;BME280;55510;49.560;19.090;2022-12-11T21:32:28;95239.38;;;-4.82;90.55
68508;BME280;55510;49.560;19.090;2022-12-11T21:35:29;95239.84;;;-4.78;90.83
68508;BME280;55510;49.560;19.090;2022-12-11T21:38:30;95245.66;;;-4.76;91.82
68508;BME280;55510;49.560;19.090;2022-12-11T21:41:31;95249.41;;;-4.79;91.62
68508;BME280;55510;49.560;19.090;2022-12-11T21:44:31;95247.78;;;-4.80;91.46
68508;BME280;55510;49.560;19.090;2022-12-11T21:47:32;95244.41;;;-4.81;91.84
68508;BME280;55510;49.560;19.090;2022-12-11T21:50:33;95250.28;;;-4.87;91.32
68508;BME280;55510;49.560;19.090;2022-12-11T21:53:34;95248.97;;;-4.83;91.63
68508;BME280;55510;49.560;19.090;2022-12-11T21:56:35;95251.59;;;-4.91;91.32
68508;BME280;55510;49.560;19.090;2022-12-11T21:59:35;95245.16;;;-4.95;92.25
68508;BME280;55510;49.560;19.090;2022-12-11T22:02:36;95239.97;;;-4.95;92.73
68508;BME280;55510;49.560;19.090;2022-12-11T22:05:37;95240.44;;;-4.91;92.97
68508;BME280;55510;49.560;19.090;2022-12-11T22:08:38;95238.34;;;-4.96;92.71
68508;BME280;55510;49.560;19.090;2022-12-11T22:11:40;95235.19;;;-5.06;92.43
68508;BME280;55510;49.560;19.090;2022-12-11T22:14:41;95235.81;;;-5.04;93.49
68508;BME280;55510;49.560;19.090;2022-12-11T22:17:42;95240.22;;;-5.05;93.39
68508;BME280;55510;49.560;19.090;2022-12-11T22:20:43;95231.63;;;-5.05;92.94
68508;BME280;55510;49.560;19.090;2022-12-11T22:23:44;95227.59;;;-5.08;93.65
68508;BME280;55510;49.560;19.090;2022-12-11T22:26:44;95235.19;;;-5.06;93.84
68508;BME280;55510;49.560;19.090;2022-12-11T22:29:45;95233.94;;;-5.11;93.44
68508;BME280;55510;49.560;19.090;2022-12-11T22:32:46;95229.03;;;-5.05;94.10
68508;BME280;55510;49.560;19.090;2022-12-11T22:35:56;95227.47;;;-5.15;93.66
68508;BME280;55510;49.560;19.090;2022-12-11T22:38:59;95234.00;;;-5.19;94.16
68508;BME280;55510;49.560;19.090;2022-12-11T22:42:00;95227.13;;;-5.12;94.55
68508;BME280;55510;49.560;19.090;2022-12-11T22:45:01;95231.81;;;-5.07;94.56
68508;BME280;55510;49.560;19.090;2022-12-11T22:48:01;95230.00;;;-5.06;94.23
68508;BME280;55510;49.560;19.090;2022-12-11T22:51:05;95228.91;;;-5.12;94.00
68508;BME280;55510;49.560;19.090;2022-12-11T22:54:05;95227.63;;;-5.16;94.00
68508;BME280;55510;49.560;19.090;2022-12-11T22:57:06;95226.94;;;-5.10;94.15
68508;BME280;55510;49.560;19.090;2022-12-11T23:00:09;95221.66;;;-5.17;94.67
68508;BME280;55510;49.560;19.090;2022-12-11T23:03:11;95220.50;;;-5.14;95.17
68508;BME280;55510;49.560;19.090;2022-12-11T23:06:14;95219.22;;;-5.18;94.83
68508;BME280;55510;49.560;19.090;2022-12-11T23:09:15;95225.88;;;-5.16;94.86
68508;BME280;55510;49.560;19.090;2022-12-11T23:12:16;95230.06;;;-5.15;95.02
68508;BME280;55510;49.560;19.090;2022-12-11T23:15:18;95230.97;;;-5.07;95.01
68508;BME280;55510;49.560;19.090;2022-12-11T23:18:18;95234.56;;;-5.08;94.11
68508;BME280;55510;49.560;19.090;2022-12-11T23:21:20;95238.13;;;-5.10;94.19
68508;BME280;55510;49.560;19.090;2022-12-11T23:24:22;95235.88;;;-5.13;94.25
68508;BME280;55510;49.560;19.090;2022-12-11T23:27:23;95232.81;;;-5.16;94.26
68508;BME280;55510;49.560;19.090;2022-12-11T23:30:24;95232.03;;;-5.17;94.55
68508;BME280;55510;49.560;19.090;2022-12-11T23:33:25;95221.75;;;-5.10;93.90
68508;BME280;55510;49.560;19.090;2022-12-11T23:36:26;95223.44;;;-5.17;92.95
68508;BME280;55510;49.560;19.090;2022-12-11T23:39:27;95217.50;;;-5.26;93.97
68508;BME280;55510;49.560;19.090;2022-12-11T23:42:28;95213.66;;;-5.30;94.59
68508;BME280;55510;49.560;19.090;2022-12-11T23:45:29;95210.88;;;-5.29;94.51
68508;BME280;55510;49.560;19.090;2022-12-11T23:48:29;95202.31;;;-5.29;95.16
68508;BME280;55510;49.560;19.090;2022-12-11T23:51:31;95212.50;;;-5.28;95.01
68508;BME280;55510;49.560;19.090;2022-12-11T23:54:31;95213.00;;;-5.32;95.18
68508;BME280;55510;49.560;19.090;2022-12-11T23:57:33;95217.50;;;-5.26;95.92
